sensor_id;sensor_type;location;lat;lon;timestamp;P1;durP1;ratioP1;P2;durP2;ratioP2
215;SDS011;45701;48.81287245;9.14186865;2022-09-09T00:00:49;5.80;;;2.60;;
215;SDS011;45701;48.81287245;9.14186865;2022-09-09T00:03:22;9.27;;;2.30;;
215;SDS011;45701;48.81287245;9.14186865;2022-09-09T00:05:54;6.40;;;2.47;;
215;SDS011;45701;48.81287245;9.14186865;2022-09-09T00:08:28;5.20;;;2.60;;
215;SDS011;45701;48.81287245;9.14186865;2022-09-09T00:11:04;8.27;;;2.63;;
215;SDS011;45701;48.81287245;9.14186865;2022-09-09T00:13:34;5.10;;;2.20;;
215;SDS011;45701;48.81287245;9.14186865;2022-09-09T00:16:07;5.43;;;2.13;;
215;SDS011;45701;48.81287245;9.14186865;2022-09-09T00:18:44;6.10;;;2.50;;
215;SDS011;45701;48.81287245;9.14186865;2022-09-09T00:21:17;7.47;;;2.70;;
215;SDS011;45701;48.81287245;9.14186865;2022-09-09T00:23:45;5.47;;;2.27;;
215;SDS011;45701;48.81287245;9.14186865;2022-09-09T00:26:18;4.17;;;2.20;;
215;SDS011;45701;48.81287245;9.14186865;2022-09-09T00:28:58;5.30;;;1.90;;
215;SDS011;45701;48.81287245;9.14186865;2022-09-09T00:31:31;5.20;;;2.20;;
215;SDS011;45701;48.81287245;9.14186865;2022-09-09T00:34:00;4.90;;;2.20;;
215;SDS011;45701;48.81287245;9.14186865;2022-09-09T00:36:31;3.80;;;2.10;;
215;SDS011;45701;48.81287245;9.14186865;2022-09-09T00:39:00;7.70;;;2.10;;
215;SDS011;45701;48.81287245;9.14186865;2022-09-09T00:41:30;5.13;;;1.93;;
215;SDS011;45701;48.81287245;9.14186865;2022-09-09T00:44:08;5.40;;;2.40;;
215;SDS011;45701;48.81287245;9.14186865;2022-09-09T00:46:50;5.60;;;2.10;;
215;SDS011;45701;48.81287245;9.14186865;2022-09-09T00:49:34;4.17;;;2.23;;
215;SDS011;45701;48.81287245;9.14186865;2022-09-09T00:52:13;4.40;;;1.93;;
215;SDS011;45701;48.81287245;9.14186865;2022-09-09T00:54:50;5.40;;;2.17;;
215;SDS011;45701;48.81287245;9.14186865;2022-09-09T00:57:23;5.90;;;1.83;;
215;SDS011;45701;48.81287245;9.14186865;2022-09-09T00:59:57;6.43;;;2.17;;
215;SDS011;45701;48.81287245;9.14186865;2022-09-09T01:02:44;5.10;;;2.00;;
215;SDS011;45701;48.81287245;9.14186865;2022-09-09T01:05:20;6.57;;;2.33;;
215;SDS011;45701;48.81287245;9.14186865;2022-09-09T01:07:52;4.57;;;2.10;;
215;SDS011;45701;48.81287245;9.14186865;2022-09-09T01:10:21;4.73;;;2.20;;
215;SDS011;45701;48.81287245;9.14186865;2022-09-09T01:12:55;8.10;;;2.40;;
215;SDS011;45701;48.81287245;9.14186865;2022-09-09T01:15:30;4.60;;;2.27;;
215;SDS011;45701;48.81287245;9.14186865;2022-09-09T01:18:00;6.93;;;2.40;;
215;SDS011;45701;48.81287245;9.14186865;2022-09-09T01:20:36;7.13;;;2.20;;
215;SDS011;45701;48.81287245;9.14186865;2022-09-09T01:23:14;5.13;;;2.20;;
215;SDS011;45701;48.81287245;9.14186865;2022-09-09T01:26:10;4.00;;;2.20;;
215;SDS011;45701;48.81287245;9.14186865;2022-09-09T01:28:42;5.37;;;2.13;;
215;SDS011;45701;48.81287245;9.14186865;2022-09-09T01:31:14;4.13;;;2.10;;
215;SDS011;45701;48.81287245;9.14186865;2022-09-09T01:33:45;6.53;;;2.37;;
215;SDS011;45701;48.81287245;9.14186865;2022-09-09T01:36:14;4.67;;;2.10;;
215;SDS011;45701;48.81287245;9.14186865;2022-09-09T01:38:50;5.40;;;2.20;;
215;SDS011;45701;48.81287245;9.14186865;2022-09-09T01:41:18;8.47;;;2.30;;
215;SDS011;45701;48.81287245;9.14186865;2022-09-09T01:43:50;5.40;;;2.30;;
215;SDS011;45701;48.81287245;9.14186865;2022-09-09T01:46:19;5.27;;;2.23;;
215;SDS011;45701;48.81287245;9.14186865;2022-09-09T01:48:48;4.03;;;2.20;;
215;SDS011;45701;48.81287245;9.14186865;2022-09-09T01:51:16;6.37;;;2.43;;
215;SDS011;45701;48.81287245;9.14186865;2022-09-09T01:53:43;5.60;;;2.50;;
215;SDS011;45701;48.81287245;9.14186865;2022-09-09T01:56:16;5.87;;;2.20;;
215;SDS011;45701;48.81287245;9.14186865;2022-09-09T01:58:57;7.90;;;2.47;;
215;SDS011;45701;48.81287245;9.14186865;2022-09-09T02:01:37;6.13;;;2.20;;
215;SDS011;45701;48.81287245;9.14186865;2022-09-09T02:04:22;7.13;;;2.40;;
215;SDS011;45701;48.81287245;9.14186865;2022-09-09T02:07:00;9.67;;;2.50;;
215;SDS011;45701;48.81287245;9.14186865;2022-09-09T02:09:29;5.83;;;2.13;;
215;SDS011;45701;48.81287245;9.14186865;2022-09-09T02:11:59;9.90;;;2.50;;
215;SDS011;45701;48.81287245;9.14186865;2022-09-09T02:14:39;7.90;;;2.03;;
215;SDS011;45701;48.81287245;9.14186865;2022-09-09T02:17:09;8.00;;;2.17;;
215;SDS011;45701;48.81287245;9.14186865;2022-09-09T02:19:52;4.57;;;2.20;;
215;SDS011;45701;48.81287245;9.14186865;2022-09-09T02:22:35;6.50;;;2.10;;
215;SDS011;45701;48.81287245;9.14186865;2022-09-09T02:25:05;4.80;;;2.17;;
215;SDS011;45701;48.81287245;9.14186865;2022-09-09T02:27:36;6.90;;;2.07;;
215;SDS011;45701;48.81287245;9.14186865;2022-09-09T02:30:03;4.50;;;1.83;;
215;SDS011;45701;48.81287245;9.14186865;2022-09-09T02:32:38;6.17;;;2.20;;
215;SDS011;45701;48.81287245;9.14186865;2022-09-09T02:35:11;4.03;;;1.90;;
215;SDS011;45701;48.81287245;9.14186865;2022-09-09T02:37:42;5.93;;;2.10;;
215;SDS011;45701;48.81287245;9.14186865;2022-09-09T02:40:11;8.03;;;1.90;;
215;SDS011;45701;48.81287245;9.14186865;2022-09-09T02:42:45;5.90;;;1.87;;
215;SDS011;45701;48.81287245;9.14186865;2022-09-09T02:45:14;8.60;;;1.90;;
215;SDS011;45701;48.81287245;9.14186865;2022-09-09T02:47:45;3.90;;;1.90;;
215;SDS011;45701;48.81287245;9.14186865;2022-09-09T02:50:19;4.60;;;1.83;;
215;SDS011;45701;48.81287245;9.14186865;2022-09-09T02:52:59;3.73;;;1.80;;
215;SDS011;45701;48.81287245;9.14186865;2022-09-09T02:55:39;6.10;;;1.90;;
215;SDS011;45701;48.81287245;9.14186865;2022-09-09T02:58:13;3.80;;;1.70;;
215;SDS011;45701;48.81287245;9.14186865;2022-09-09T03:00:48;4.93;;;1.90;;
215;SDS011;45701;48.81287245;9.14186865;2022-09-09T03:03:17;4.47;;;1.70;;
215;SDS011;45701;48.81287245;9.14186865;2022-09-09T03:05:47;5.30;;;1.80;;
215;SDS011;45701;48.81287245;9.14186865;2022-09-09T03:08:14;7.87;;;1.90;;
215;SDS011;45701;48.81287245;9.14186865;2022-09-09T03:10:42;8.10;;;1.70;;
215;SDS011;45701;48.81287245;9.14186865;2022-09-09T03:13:14;5.60;;;1.90;;
215;SDS011;45701;48.81287245;9.14186865;2022-09-09T03:15:41;3.90;;;1.80;;
215;SDS011;45701;48.81287245;9.14186865;2022-09-09T03:18:13;4.97;;;2.03;;
215;SDS011;45701;48.81287245;9.14186865;2022-09-09T03:20:39;5.97;;;2.30;;
215;SDS011;45701;48.81287245;9.14186865;2022-09-09T03:23:07;8.93;;;2.07;;
215;SDS011;45701;48.81287245;9.14186865;2022-09-09T03:25:34;6.70;;;2.40;;
215;SDS011;45701;48.81287245;9.14186865;2022-09-09T03:28:01;4.13;;;1.90;;
215;SDS011;45701;48.81287245;9.14186865;2022-09-09T03:30:29;3.90;;;1.90;;
215;SDS011;45701;48.81287245;9.14186865;2022-09-09T03:32:57;4.40;;;2.03;;
215;SDS011;45701;48.81287245;9.14186865;2022-09-09T03:35:29;6.93;;;1.80;;
215;SDS011;45701;48.81287245;9.14186865;2022-09-09T03:37:56;4.20;;;1.80;;
215;SDS011;45701;48.81287245;9.14186865;2022-09-09T03:40:23;4.50;;;1.90;;
215;SDS011;45701;48.81287245;9.14186865;2022-09-09T03:42:49;5.90;;;1.77;;
215;SDS011;45701;48.81287245;9.14186865;2022-09-09T03:45:17;5.90;;;1.90;;
215;SDS011;45701;48.81287245;9.14186865;2022-09-09T03:47:45;6.20;;;2.00;;
215;SDS011;45701;48.81287245;9.14186865;2022-09-09T03:50:12;5.43;;;2.00;;
215;SDS011;45701;48.81287245;9.14186865;2022-09-09T03:52:43;6.17;;;1.60;;
215;SDS011;45701;48.81287245;9.14186865;2022-09-09T03:55:17;5.83;;;1.80;;
215;SDS011;45701;48.81287245;9.14186865;2022-09-09T03:57:44;5.97;;;1.87;;
215;SDS011;45701;48.81287245;9.14186865;2022-09-09T04:00:12;4.80;;;1.73;;
215;SDS011;45701;48.81287245;9.14186865;2022-09-09T04:02:42;5.10;;;1.63;;
215;SDS011;45701;48.81287245;9.14186865;2022-09-09T04:05:14;3.10;;;1.70;;
215;SDS011;45701;48.81287245;9.14186865;2022-09-09T04:07:43;4.33;;;1.90;;
215;SDS011;45701;48.81287245;9.14186865;2022-09-09T04:10:09;7.50;;;1.93;;
215;SDS011;45701;48.81287245;9.14186865;2022-09-09T04:12:38;3.00;;;1.40;;
215;SDS011;45701;48.81287245;9.14186865;2022-09-09T04:15:05;4.13;;;1.73;;
215;SDS011;45701;48.81287245;9.14186865;2022-09-09T04:17:34;4.83;;;1.60;;
215;SDS011;45701;48.81287245;9.14186865;2022-09-09T04:20:01;3.30;;;1.90;;
215;SDS011;45701;48.81287245;9.14186865;2022-09-09T04:22:30;3.30;;;1.70;;
215;SDS011;45701;48.81287245;9.14186865;2022-09-09T04:24:57;4.33;;;1.60;;
215;SDS011;45701;48.81287245;9.14186865;2022-09-09T04:27:24;4.27;;;1.67;;
215;SDS011;45701;48.81287245;9.14186865;2022-09-09T04:29:50;3.90;;;1.80;;
215;SDS011;45701;48.81287245;9.14186865;2022-09-09T04:32:17;11.33;;;1.93;;
215;SDS011;45701;48.81287245;9.14186865;2022-09-09T04:34:45;4.30;;;1.80;;
215;SDS011;45701;48.81287245;9.14186865;2022-09-09T04:37:13;4.50;;;1.90;;
215;SDS011;45701;48.81287245;9.14186865;2022-09-09T04:39:43;4.87;;;1.70;;
215;SDS011;45701;48.81287245;9.14186865;2022-09-09T04:42:10;4.60;;;2.00;;
215;SDS011;45701;48.81287245;9.14186865;2022-09-09T04:44:37;7.20;;;2.00;;
215;SDS011;45701;48.81287245;9.14186865;2022-09-09T04:47:04;5.87;;;1.90;;
215;SDS011;45701;48.81287245;9.14186865;2022-09-09T04:49:31;4.77;;;2.00;;
215;SDS011;45701;48.81287245;9.14186865;2022-09-09T04:51:58;4.70;;;2.10;;
215;SDS011;45701;48.81287245;9.14186865;2022-09-09T04:54:25;7.23;;;2.20;;
215;SDS011;45701;48.81287245;9.14186865;2022-09-09T04:56:55;5.00;;;2.10;;
215;SDS011;45701;48.81287245;9.14186865;2022-09-09T04:59:21;6.33;;;2.23;;
215;SDS011;45701;48.81287245;9.14186865;2022-09-09T05:01:52;5.73;;;2.20;;
215;SDS011;45701;48.81287245;9.14186865;2022-09-09T05:04:20;4.80;;;1.90;;
215;SDS011;45701;48.81287245;9.14186865;2022-09-09T05:06:47;3.60;;;1.90;;
215;SDS011;45701;48.81287245;9.14186865;2022-09-09T05:09:14;5.67;;;1.97;;
215;SDS011;45701;48.81287245;9.14186865;2022-09-09T05:11:42;5.77;;;2.20;;
215;SDS011;45701;48.81287245;9.14186865;2022-09-09T05:14:18;6.30;;;2.10;;
215;SDS011;45701;48.81287245;9.14186865;2022-09-09T05:16:44;7.27;;;2.10;;
215;SDS011;45701;48.81287245;9.14186865;2022-09-09T05:19:12;4.73;;;2.03;;
215;SDS011;45701;48.81287245;9.14186865;2022-09-09T05:21:45;5.60;;;1.97;;
215;SDS011;45701;48.81287245;9.14186865;2022-09-09T05:24:15;8.33;;;2.27;;
215;SDS011;45701;48.81287245;9.14186865;2022-09-09T05:26:44;4.33;;;2.00;;
215;SDS011;45701;48.81287245;9.14186865;2022-09-09T05:29:11;5.23;;;1.80;;
215;SDS011;45701;48.81287245;9.14186865;2022-09-09T05:31:39;7.53;;;2.00;;
215;SDS011;45701;48.81287245;9.14186865;2022-09-09T05:34:10;4.77;;;2.10;;
215;SDS011;45701;48.81287245;9.14186865;2022-09-09T05:36:37;7.73;;;2.20;;
215;SDS011;45701;48.81287245;9.14186865;2022-09-09T05:39:04;5.93;;;2.00;;
215;SDS011;45701;48.81287245;9.14186865;2022-09-09T05:41:32;4.00;;;1.87;;
215;SDS011;45701;48.81287245;9.14186865;2022-09-09T05:44:01;6.03;;;2.00;;
215;SDS011;45701;48.81287245;9.14186865;2022-09-09T05:46:31;4.00;;;2.03;;
215;SDS011;45701;48.81287245;9.14186865;2022-09-09T05:48:59;6.27;;;2.20;;
215;SDS011;45701;48.81287245;9.14186865;2022-09-09T05:51:29;4.70;;;1.80;;
215;SDS011;45701;48.81287245;9.14186865;2022-09-09T05:53:57;4.03;;;1.97;;
215;SDS011;45701;48.81287245;9.14186865;2022-09-09T05:56:26;4.40;;;1.80;;
215;SDS011;45701;48.81287245;9.14186865;2022-09-09T05:58:55;5.47;;;2.10;;
215;SDS011;45701;48.81287245;9.14186865;2022-09-09T06:01:23;7.40;;;2.30;;
215;SDS011;45701;48.81287245;9.14186865;2022-09-09T06:03:52;3.90;;;1.80;;
215;SDS011;45701;48.81287245;9.14186865;2022-09-09T06:06:23;4.17;;;1.80;;
215;SDS011;45701;48.81287245;9.14186865;2022-09-09T06:08:53;4.87;;;1.80;;
215;SDS011;45701;48.81287245;9.14186865;2022-09-09T06:11:22;6.33;;;1.80;;
215;SDS011;45701;48.81287245;9.14186865;2022-09-09T06:13:51;6.43;;;2.00;;
215;SDS011;45701;48.81287245;9.14186865;2022-09-09T06:16:20;4.93;;;2.10;;
215;SDS011;45701;48.81287245;9.14186865;2022-09-09T06:18:49;9.73;;;2.10;;
215;SDS011;45701;48.81287245;9.14186865;2022-09-09T06:21:17;3.77;;;1.73;;
215;SDS011;45701;48.81287245;9.14186865;2022-09-09T06:23:47;5.70;;;2.03;;
215;SDS011;45701;48.81287245;9.14186865;2022-09-09T06:26:17;6.10;;;1.97;;
215;SDS011;45701;48.81287245;9.14186865;2022-09-09T06:28:46;5.20;;;2.07;;
215;SDS011;45701;48.81287245;9.14186865;2022-09-09T06:31:15;5.67;;;2.00;;
215;SDS011;45701;48.81287245;9.14186865;2022-09-09T06:33:48;6.40;;;2.20;;
215;SDS011;45701;48.81287245;9.14186865;2022-09-09T06:36:16;5.73;;;2.10;;
215;SDS011;45701;48.81287245;9.14186865;2022-09-09T06:38:44;4.63;;;2.30;;
215;SDS011;45701;48.81287245;9.14186865;2022-09-09T06:41:15;4.20;;;2.30;;
215;SDS011;45701;48.81287245;9.14186865;2022-09-09T06:43:44;5.23;;;2.50;;
215;SDS011;45701;48.81287245;9.14186865;2022-09-09T06:46:12;6.57;;;2.20;;
215;SDS011;45701;48.81287245;9.14186865;2022-09-09T06:48:40;3.77;;;2.40;;
215;SDS011;45701;48.81287245;9.14186865;2022-09-09T06:51:10;5.23;;;2.50;;
215;SDS011;45701;48.81287245;9.14186865;2022-09-09T06:53:40;4.27;;;2.33;;
215;SDS011;45701;48.81287245;9.14186865;2022-09-09T06:56:19;5.37;;;2.30;;
215;SDS011;45701;48.81287245;9.14186865;2022-09-09T06:58:49;5.77;;;2.40;;
215;SDS011;45701;48.81287245;9.14186865;2022-09-09T07:01:23;5.37;;;2.43;;
215;SDS011;45701;48.81287245;9.14186865;2022-09-09T07:03:53;5.57;;;2.50;;
215;SDS011;45701;48.81287245;9.14186865;2022-09-09T07:06:24;4.07;;;2.23;;
215;SDS011;45701;48.81287245;9.14186865;2022-09-09T07:08:53;8.70;;;2.50;;
215;SDS011;45701;48.81287245;9.14186865;2022-09-09T07:11:24;7.70;;;2.20;;
215;SDS011;45701;48.81287245;9.14186865;2022-09-09T07:13:53;5.83;;;2.30;;
215;SDS011;45701;48.81287245;9.14186865;2022-09-09T07:16:22;5.57;;;2.30;;
215;SDS011;45701;48.81287245;9.14186865;2022-09-09T07:18:50;4.07;;;2.00;;
215;SDS011;45701;48.81287245;9.14186865;2022-09-09T07:21:18;4.87;;;2.30;;
215;SDS011;45701;48.81287245;9.14186865;2022-09-09T07:23:49;5.27;;;2.17;;
215;SDS011;45701;48.81287245;9.14186865;2022-09-09T07:26:17;8.60;;;2.20;;
215;SDS011;45701;48.81287245;9.14186865;2022-09-09T07:28:47;7.63;;;2.20;;
215;SDS011;45701;48.81287245;9.14186865;2022-09-09T07:31:17;8.27;;;2.37;;
215;SDS011;45701;48.81287245;9.14186865;2022-09-09T07:33:46;5.57;;;2.30;;
215;SDS011;45701;48.81287245;9.14186865;2022-09-09T07:36:14;7.60;;;2.20;;
215;SDS011;45701;48.81287245;9.14186865;2022-09-09T07:38:43;5.60;;;2.47;;
215;SDS011;45701;48.81287245;9.14186865;2022-09-09T07:41:13;6.60;;;2.50;;
215;SDS011;45701;48.81287245;9.14186865;2022-09-09T07:43:41;6.00;;;2.30;;
215;SDS011;45701;48.81287245;9.14186865;2022-09-09T07:46:17;4.77;;;2.30;;
215;SDS011;45701;48.81287245;9.14186865;2022-09-09T07:48:45;6.03;;;2.30;;
215;SDS011;45701;48.81287245;9.14186865;2022-09-09T07:51:18;9.03;;;2.80;;
215;SDS011;45701;48.81287245;9.14186865;2022-09-09T07:53:51;9.63;;;2.97;;
215;SDS011;45701;48.81287245;9.14186865;2022-09-09T07:56:20;5.77;;;2.10;;
215;SDS011;45701;48.81287245;9.14186865;2022-09-09T07:58:48;5.43;;;1.93;;
215;SDS011;45701;48.81287245;9.14186865;2022-09-09T08:01:19;6.57;;;2.30;;
215;SDS011;45701;48.81287245;9.14186865;2022-09-09T08:03:52;5.53;;;2.10;;
215;SDS011;45701;48.81287245;9.14186865;2022-09-09T08:06:20;9.97;;;2.30;;
215;SDS011;45701;48.81287245;9.14186865;2022-09-09T08:08:49;6.60;;;2.30;;
215;SDS011;45701;48.81287245;9.14186865;2022-09-09T08:11:17;5.17;;;2.00;;
215;SDS011;45701;48.81287245;9.14186865;2022-09-09T08:13:45;4.50;;;2.13;;
215;SDS011;45701;48.81287245;9.14186865;2022-09-09T08:16:14;5.13;;;2.00;;
215;SDS011;45701;48.81287245;9.14186865;2022-09-09T08:18:43;8.70;;;2.40;;
215;SDS011;45701;48.81287245;9.14186865;2022-09-09T08:21:11;4.67;;;1.93;;
215;SDS011;45701;48.81287245;9.14186865;2022-09-09T08:23:39;6.23;;;2.00;;
215;SDS011;45701;48.81287245;9.14186865;2022-09-09T08:26:09;5.80;;;1.90;;
215;SDS011;45701;48.81287245;9.14186865;2022-09-09T08:28:43;7.60;;;1.97;;
215;SDS011;45701;48.81287245;9.14186865;2022-09-09T08:31:11;4.80;;;1.90;;
215;SDS011;45701;48.81287245;9.14186865;2022-09-09T08:33:40;5.40;;;2.20;;
215;SDS011;45701;48.81287245;9.14186865;2022-09-09T08:36:13;5.60;;;2.40;;
215;SDS011;45701;48.81287245;9.14186865;2022-09-09T08:38:41;6.23;;;2.10;;
215;SDS011;45701;48.81287245;9.14186865;2022-09-09T08:44:06;4.90;;;2.00;;
215;SDS011;45701;48.81287245;9.14186865;2022-09-09T08:46:39;7.87;;;2.20;;
215;SDS011;45701;48.81287245;9.14186865;2022-09-09T08:49:17;7.80;;;2.07;;
215;SDS011;45701;48.81287245;9.14186865;2022-09-09T08:51:59;5.30;;;2.40;;
215;SDS011;45701;48.81287245;9.14186865;2022-09-09T08:54:30;7.50;;;2.30;;
215;SDS011;45701;48.81287245;9.14186865;2022-09-09T08:57:01;7.60;;;2.20;;
215;SDS011;45701;48.81287245;9.14186865;2022-09-09T08:59:29;8.67;;;2.40;;
215;SDS011;45701;48.81287245;9.14186865;2022-09-09T09:02:00;6.43;;;2.00;;
215;SDS011;45701;48.81287245;9.14186865;2022-09-09T09:04:45;8.03;;;2.53;;
215;SDS011;45701;48.81287245;9.14186865;2022-09-09T09:07:31;4.60;;;2.10;;
215;SDS011;45701;48.81287245;9.14186865;2022-09-09T09:10:10;3.90;;;1.90;;
215;SDS011;45701;48.81287245;9.14186865;2022-09-09T09:12:42;5.70;;;2.13;;
215;SDS011;45701;48.81287245;9.14186865;2022-09-09T09:15:14;8.00;;;2.27;;
215;SDS011;45701;48.81287245;9.14186865;2022-09-09T09:17:45;8.30;;;2.20;;
215;SDS011;45701;48.81287245;9.14186865;2022-09-09T09:20:12;8.87;;;2.43;;
215;SDS011;45701;48.81287245;9.14186865;2022-09-09T09:22:46;7.07;;;1.93;;
215;SDS011;45701;48.81287245;9.14186865;2022-09-09T09:25:17;5.83;;;2.20;;
215;SDS011;45701;48.81287245;9.14186865;2022-09-09T09:27:49;7.33;;;2.00;;
215;SDS011;45701;48.81287245;9.14186865;2022-09-09T09:30:28;11.03;;;2.47;;
215;SDS011;45701;48.81287245;9.14186865;2022-09-09T09:33:05;10.10;;;2.50;;
215;SDS011;45701;48.81287245;9.14186865;2022-09-09T09:35:37;6.27;;;2.20;;
215;SDS011;45701;48.81287245;9.14186865;2022-09-09T09:38:09;4.83;;;2.07;;
215;SDS011;45701;48.81287245;9.14186865;2022-09-09T09:40:50;7.93;;;2.43;;
215;SDS011;45701;48.81287245;9.14186865;2022-09-09T09:43:24;5.80;;;2.40;;
215;SDS011;45701;48.81287245;9.14186865;2022-09-09T09:45:54;4.70;;;2.00;;
215;SDS011;45701;48.81287245;9.14186865;2022-09-09T09:48:23;5.30;;;2.10;;
215;SDS011;45701;48.81287245;9.14186865;2022-09-09T09:50:51;4.53;;;2.10;;
215;SDS011;45701;48.81287245;9.14186865;2022-09-09T09:53:23;4.90;;;2.00;;
215;SDS011;45701;48.81287245;9.14186865;2022-09-09T09:55:55;6.83;;;1.80;;
215;SDS011;45701;48.81287245;9.14186865;2022-09-09T09:58:24;5.23;;;1.60;;
215;SDS011;45701;48.81287245;9.14186865;2022-09-09T10:00:53;4.77;;;1.60;;
215;SDS011;45701;48.81287245;9.14186865;2022-09-09T10:03:25;7.07;;;2.00;;
215;SDS011;45701;48.81287245;9.14186865;2022-09-09T10:05:54;5.70;;;1.83;;
215;SDS011;45701;48.81287245;9.14186865;2022-09-09T10:08:24;6.37;;;1.70;;
215;SDS011;45701;48.81287245;9.14186865;2022-09-09T10:10:55;3.13;;;1.50;;
215;SDS011;45701;48.81287245;9.14186865;2022-09-09T10:13:29;5.80;;;2.00;;
215;SDS011;45701;48.81287245;9.14186865;2022-09-09T10:16:06;5.57;;;1.90;;
215;SDS011;45701;48.81287245;9.14186865;2022-09-09T10:18:44;4.27;;;2.00;;
215;SDS011;45701;48.81287245;9.14186865;2022-09-09T10:21:20;5.00;;;1.70;;
215;SDS011;45701;48.81287245;9.14186865;2022-09-09T10:24:04;5.77;;;2.23;;
215;SDS011;45701;48.81287245;9.14186865;2022-09-09T10:26:49;7.93;;;1.70;;
215;SDS011;45701;48.81287245;9.14186865;2022-09-09T10:29:36;6.10;;;2.30;;
215;SDS011;45701;48.81287245;9.14186865;2022-09-09T10:35:04;4.30;;;2.00;;
215;SDS011;45701;48.81287245;9.14186865;2022-09-09T10:37:41;5.30;;;2.03;;
215;SDS011;45701;48.81287245;9.14186865;2022-09-09T10:40:23;5.73;;;2.10;;
215;SDS011;45701;48.81287245;9.14186865;2022-09-09T10:43:01;5.00;;;2.30;;
215;SDS011;45701;48.81287245;9.14186865;2022-09-09T10:45:41;4.77;;;1.77;;
215;SDS011;45701;48.81287245;9.14186865;2022-09-09T10:48:28;4.00;;;2.13;;
215;SDS011;45701;48.81287245;9.14186865;2022-09-09T10:51:02;5.70;;;2.10;;
215;SDS011;45701;48.81287245;9.14186865;2022-09-09T10:53:45;5.30;;;2.00;;
215;SDS011;45701;48.81287245;9.14186865;2022-09-09T10:56:20;5.70;;;2.00;;
215;SDS011;45701;48.81287245;9.14186865;2022-09-09T10:58:49;5.23;;;2.03;;
215;SDS011;45701;48.81287245;9.14186865;2022-09-09T11:01:19;4.97;;;2.10;;
215;SDS011;45701;48.81287245;9.14186865;2022-09-09T11:03:49;4.00;;;1.70;;
215;SDS011;45701;48.81287245;9.14186865;2022-09-09T11:06:22;5.80;;;2.13;;
215;SDS011;45701;48.81287245;9.14186865;2022-09-09T11:08:55;5.37;;;1.90;;
215;SDS011;45701;48.81287245;9.14186865;2022-09-09T11:11:27;6.60;;;1.90;;
215;SDS011;45701;48.81287245;9.14186865;2022-09-09T11:13:59;8.03;;;1.97;;
215;SDS011;45701;48.81287245;9.14186865;2022-09-09T11:16:30;5.27;;;2.00;;
215;SDS011;45701;48.81287245;9.14186865;2022-09-09T11:19:10;5.00;;;1.97;;
215;SDS011;45701;48.81287245;9.14186865;2022-09-09T11:21:43;5.60;;;2.10;;
215;SDS011;45701;48.81287245;9.14186865;2022-09-09T11:24:13;6.73;;;1.90;;
215;SDS011;45701;48.81287245;9.14186865;2022-09-09T11:26:49;6.70;;;2.10;;
215;SDS011;45701;48.81287245;9.14186865;2022-09-09T11:29:26;8.13;;;2.30;;
215;SDS011;45701;48.81287245;9.14186865;2022-09-09T11:32:13;4.07;;;1.60;;
215;SDS011;45701;48.81287245;9.14186865;2022-09-09T11:34:53;9.13;;;1.87;;
215;SDS011;45701;48.81287245;9.14186865;2022-09-09T11:37:38;4.07;;;1.63;;
215;SDS011;45701;48.81287245;9.14186865;2022-09-09T11:40:19;4.07;;;1.60;;
215;SDS011;45701;48.81287245;9.14186865;2022-09-09T11:42:50;4.00;;;2.10;;
215;SDS011;45701;48.81287245;9.14186865;2022-09-09T11:45:30;4.10;;;1.87;;
215;SDS011;45701;48.81287245;9.14186865;2022-09-09T11:47:58;6.13;;;1.80;;
215;SDS011;45701;48.81287245;9.14186865;2022-09-09T11:50:28;4.20;;;1.80;;
215;SDS011;45701;48.81287245;9.14186865;2022-09-09T11:53:04;5.13;;;1.80;;
215;SDS011;45701;48.81287245;9.14186865;2022-09-09T11:55:48;3.70;;;1.60;;
215;SDS011;45701;48.81287245;9.14186865;2022-09-09T11:58:27;6.60;;;1.50;;
215;SDS011;45701;48.81287245;9.14186865;2022-09-09T12:01:01;4.90;;;1.57;;
215;SDS011;45701;48.81287245;9.14186865;2022-09-09T12:03:41;2.43;;;1.30;;
215;SDS011;45701;48.81287245;9.14186865;2022-09-09T12:06:12;5.80;;;1.50;;
215;SDS011;45701;48.81287245;9.14186865;2022-09-09T12:08:42;5.60;;;1.30;;
215;SDS011;45701;48.81287245;9.14186865;2022-09-09T12:11:11;4.67;;;1.70;;
215;SDS011;45701;48.81287245;9.14186865;2022-09-09T12:13:53;5.77;;;1.60;;
215;SDS011;45701;48.81287245;9.14186865;2022-09-09T12:16:31;7.33;;;1.70;;
215;SDS011;45701;48.81287245;9.14186865;2022-09-09T12:19:03;3.90;;;1.50;;
215;SDS011;45701;48.81287245;9.14186865;2022-09-09T12:21:33;4.80;;;1.40;;
215;SDS011;45701;48.81287245;9.14186865;2022-09-09T12:24:06;3.90;;;1.50;;
215;SDS011;45701;48.81287245;9.14186865;2022-09-09T12:26:36;3.83;;;1.60;;
215;SDS011;45701;48.81287245;9.14186865;2022-09-09T12:29:16;5.13;;;1.90;;
215;SDS011;45701;48.81287245;9.14186865;2022-09-09T12:31:51;3.37;;;1.40;;
215;SDS011;45701;48.81287245;9.14186865;2022-09-09T12:34:27;4.77;;;1.50;;
215;SDS011;45701;48.81287245;9.14186865;2022-09-09T12:37:03;4.53;;;1.60;;
215;SDS011;45701;48.81287245;9.14186865;2022-09-09T12:39:38;3.20;;;1.50;;
215;SDS011;45701;48.81287245;9.14186865;2022-09-09T12:42:16;4.77;;;1.50;;
215;SDS011;45701;48.81287245;9.14186865;2022-09-09T12:44:55;3.83;;;1.57;;
215;SDS011;45701;48.81287245;9.14186865;2022-09-09T12:47:25;2.70;;;1.27;;
215;SDS011;45701;48.81287245;9.14186865;2022-09-09T12:49:59;3.57;;;1.30;;
215;SDS011;45701;48.81287245;9.14186865;2022-09-09T12:52:27;3.30;;;1.50;;
215;SDS011;45701;48.81287245;9.14186865;2022-09-09T12:54:58;4.90;;;1.50;;
215;SDS011;45701;48.81287245;9.14186865;2022-09-09T12:57:29;4.70;;;1.50;;
215;SDS011;45701;48.81287245;9.14186865;2022-09-09T13:00:07;2.80;;;1.40;;
215;SDS011;45701;48.81287245;9.14186865;2022-09-09T13:02:45;4.63;;;1.83;;
215;SDS011;45701;48.81287245;9.14186865;2022-09-09T13:05:16;4.00;;;1.60;;
215;SDS011;45701;48.81287245;9.14186865;2022-09-09T13:07:45;4.50;;;1.40;;
215;SDS011;45701;48.81287245;9.14186865;2022-09-09T13:10:12;4.83;;;1.40;;
215;SDS011;45701;48.81287245;9.14186865;2022-09-09T13:12:41;3.77;;;1.50;;
215;SDS011;45701;48.81287245;9.14186865;2022-09-09T13:15:12;5.33;;;1.60;;
215;SDS011;45701;48.81287245;9.14186865;2022-09-09T13:17:49;2.90;;;1.30;;
215;SDS011;45701;48.81287245;9.14186865;2022-09-09T13:20:18;3.53;;;1.70;;
215;SDS011;45701;48.81287245;9.14186865;2022-09-09T13:22:46;3.73;;;1.60;;
215;SDS011;45701;48.81287245;9.14186865;2022-09-09T13:25:20;6.27;;;1.70;;
215;SDS011;45701;48.81287245;9.14186865;2022-09-09T13:28:00;7.67;;;1.50;;
215;SDS011;45701;48.81287245;9.14186865;2022-09-09T13:30:30;3.20;;;1.40;;
215;SDS011;45701;48.81287245;9.14186865;2022-09-09T13:33:02;4.10;;;1.63;;
215;SDS011;45701;48.81287245;9.14186865;2022-09-09T13:35:30;4.90;;;1.60;;
215;SDS011;45701;48.81287245;9.14186865;2022-09-09T13:37:58;3.63;;;1.50;;
215;SDS011;45701;48.81287245;9.14186865;2022-09-09T13:40:25;7.50;;;1.50;;
215;SDS011;45701;48.81287245;9.14186865;2022-09-09T13:42:54;4.17;;;1.70;;